• Join FlightAware (Why Join?)
  • Login
  • US Flag 
10:49PM EST


 

Airport Tracker/Info


-or-


 

Live Flight TrackerFlight Track Log ✈ UAL4233 ✈ 18-Aug-2014 ✈ KORD - KMEM

Flight Track Log - Related Links

Times and Time Zones

All times are in EDT time to prevent confusion due to time zone crossing. See the UAL4233 flight status page for this flight to view local times or setup timezone preferences in your user account.

Time Position Orientation Groundspeed Altitude Reporting Facility
EDT Latitude Longitude Course Direction KTS MPH feet Rate Location/Type
01:15PM 41.9333 -87.9167 194° South 166 191 2,400  Level Chicago TRACON
01:16PM 41.8806 -87.9125 177° South 183 211 3,600 1,412 Climbing Chicago Center
01:17PM 41.8064 -87.9122 180° South 245 282 5,200 1,790 Climbing Chicago Center
01:18PM 41.7306 -87.9111 179° South 271 312 7,300 1,774 Climbing Chicago Center
01:20PM 41.2978 -88.1300 191° South  Level Estimated
01:20PM 41.5851 -87.9605 189° South  Level Estimated
01:20PM 41.5717 -87.9519 189° South 294 338 10,700  Level Chicago Center
01:21PM 41.1842 -88.1666 194° South  Level Estimated
01:21PM 41.4889 -88.0039 205° Southwest 306 352 12,200  Level Chicago Center
01:22PM 41.4061 -88.0561 205° Southwest 328 377 12,800 720 Climbing Chicago Center
01:23PM 41.3081 -88.1156 204° Southwest 357 411 13,700 919 Climbing Chicago Center
01:24PM 41.2164 -88.1728 205° Southwest 361 415 14,700 1,016 Climbing Chicago Center
01:25PM 41.1172 -88.2344 205° Southwest 363 418 15,800 1,016 Climbing Chicago Center
01:27PM 41.0244 -88.2908 205° Southwest 366 421 16,800 968 Climbing Chicago Center
01:28PM 40.9258 -88.3500 204° Southwest 365 420 17,800 960 Climbing Chicago Center
01:29PM 40.8331 -88.4075 205° Southwest 366 421 18,800 960 Climbing Chicago Center
01:30PM 40.7400 -88.4647 205° Southwest 369 425 19,800 968 Climbing Chicago Center
01:31PM 40.6456 -88.5208 204° Southwest 369 425 20,800 968 Climbing Chicago Center
01:32PM 40.5464 -88.5653 199° South 373 429 21,800 1,016 Climbing Chicago Center
01:33PM 40.4403 -88.6025 195° South 376 433 22,900 1,016 Climbing Chicago Center
01:34PM 40.3386 -88.6394 195° South 376 433 23,900 960 Climbing Chicago Center
01:35PM 40.2403 -88.6786 197° South 371 427 24,900 1,056 Climbing Chicago Center
01:36PM 40.1197 -88.7214 195° South 370 426 26,100 1,065 Climbing Chicago Center
01:37PM 40.0211 -88.7589 196° South 368 423 27,100 919 Climbing Chicago Center
01:38PM 39.9214 -88.7900 193° South 366 421 28,000 879 Climbing Chicago Center
01:39PM 39.8408 -88.8156 194° South 368 423 28,800 923 Climbing Kansas City Center
01:40PM 39.7225 -88.8531 194° South 367 422 29,800 864 Climbing Kansas City Center
01:41PM 39.6222 -88.8839 193° South 367 422 30,600 768 Climbing Kansas City Center
01:42PM 39.5311 -88.9419 206° Southwest 366 421 31,400 774 Climbing Kansas City Center
01:43PM 39.4419 -89.0069 209° Southwest 365 420 32,200 720 Climbing Kansas City Center
01:44PM 39.3517 -89.0714 209° Southwest 365 420 32,900 629 Climbing Kansas City Center
01:45PM 39.2625 -89.1367 210° Southwest 365 420 33,500 590 Climbing Kansas City Center
01:46PM 39.1694 -89.2017 208° Southwest 370 426 34,100 672 Climbing Kansas City Center
01:47PM 39.0556 -89.2792 208° Southwest 379 436 34,900 768 Climbing Kansas City Center
01:48PM 38.9561 -89.3486 209° Southwest 383 441 35,700 537 Climbing Kansas City Center
01:49PM 38.8675 -89.4108 209° Southwest 383 441 36,000 144 Climbing Kansas City Center
01:50PM 38.7711 -89.4775 208° Southwest 386 444 36,000  Level Kansas City Center
01:51PM 38.6694 -89.5478 208° Southwest 406 467 36,000  Level Kansas City Center
01:52PM 38.5661 -89.6225 209° Southwest 415 478 36,000  Level Kansas City Center
01:53PM 38.4353 -89.7131 208° Southwest 427 491 36,000  Level Kansas City Center
01:54PM 38.3297 -89.7858 208° Southwest 432 497 36,000  Level Kansas City Center
01:55PM 38.2200 -89.8606 208° Southwest 440 506 36,000  Level Kansas City Center
01:56PM 38.1075 -89.9381 208° Southwest 438 504 36,000 -96 Level Kansas City Center
01:57PM 37.9961 -90.0147 208° Southwest 426 490 35,800 -476 Descending Kansas City Center
01:58PM 37.9050 -90.0747 207° Southwest 425 489 35,000 -532 Descending Kansas City Center
02:00PM 37.8006 -90.1456 208° Southwest 425 489 34,700 -484 Descending Kansas City Center
02:01PM 37.6775 -90.2308 209° Southwest 425 489 34,000 -336 Descending Kansas City Center
02:02PM 37.5781 -90.3014 209° Southwest 417 480 34,000  Level Kansas City Center
02:03PM 37.4767 -90.3747 210° Southwest 416 479 34,000  Level Kansas City Center
02:04PM 37.3733 -90.4481 209° Southwest 419 482 34,000  Level Kansas City Center
02:05PM 37.2725 -90.5244 211° Southwest 422 486 34,000  Level Kansas City Center
02:06PM 37.1531 -90.6094 210° Southwest 417 480 34,000  Level Kansas City Center
02:06PM 37.1139 -90.6375 210° Southwest 419 482 34,000  Level Memphis Center
02:07PM 36.9822 -90.6878 197° South 421 484 34,000 -48 Level Memphis Center
02:08PM 36.8656 -90.7053 187° South 422 486 33,900 -968 Descending Memphis Center
02:09PM 36.7539 -90.7203 186° South 415 478 32,000 -1,984 Descending Memphis Center
02:10PM 36.6381 -90.7342 185° South 414 476 29,800 -2,146 Descending Memphis Center
02:11PM 36.5186 -90.7514 187° South 424 488 27,600 -2,146 Descending Memphis Center
02:12PM 36.4003 -90.7672 186° South 426 490 25,400 -2,177 Descending Memphis Center
02:13PM 36.2625 -90.7853 186° South 420 483 23,100 -1,790 Descending Memphis Center
02:15PM 36.1503 -90.8000 186° South 412 474 21,700 -1,610 Descending Memphis Center
02:16PM 36.0392 -90.8150 186° South 408 470 19,800 -1,902 Descending Memphis Center
02:17PM 35.9328 -90.8300 187° South 393 452 17,800 -1,935 Descending Memphis Center
02:18PM 35.8372 -90.8731 200° South 376 433 15,800 -1,935 Descending Memphis Center
02:19PM 35.7444 -90.9119 199° South 363 418 13,800 -2,000 Descending Memphis Center
02:20PM 35.6333 -90.9050 177° South 364 419 11,700 -1,805 Descending Memphis Center
02:21PM 35.5344 -90.8878 172° South 363 418 10,100 -823 Descending Memphis Center
02:22PM 35.4714 -90.8033 133° Southeast 343 395 10,000 -48 Descending Memphis Center
02:23PM 35.4408 -90.7058 111° Southeast 316 364 10,000 48 Level Memphis Center
02:24PM 35.4114 -90.6167 112° Southeast 290 334 10,100 -484 Climbing Memphis Center
02:25PM 35.3842 -90.5028 106° East 290 334 9,000 -1,024 Descending Memphis Center
02:26PM 35.3625 -90.4047 105° East 294 338 8,000 -829 Descending Memphis Center
02:27PM 35.3406 -90.3108 106° East 293 337 7,300 -919 Descending Memphis Center
02:28PM 35.3189 -90.2181 106° East 288 331 6,100 -1,161 Descending Memphis Center
02:29PM 35.2975 -90.1256 106° East 285 328 4,900 -1,500 Descending Memphis Center
02:30PM 35.2767 -90.0369 106° East 279 321 3,000 -1,306 Descending Memphis Center
02:31PM 35.2303 -89.9806 135° Southeast 259 298 2,200 -488 Descending Memphis Center
02:32PM 35.1658 -89.9753 176° South 214 246 2,000 -271 Descending Memphis Center
02:33PM 35.1167 -89.9667 172° South 141 162 1,600 -545 Descending KMEM
02:34PM 35.0667 -89.9667 180° South 142 163 800 -800 Descending KMEM